sensor_id;sensor_type;location;lat;lon;timestamp;P1;durP1;ratioP1;P2;durP2;ratioP2
3643;SDS011;1838;50.742;7.158;2024-01-11T00:00:28;60.23;;;24.20;;
3643;SDS011;1838;50.742;7.158;2024-01-11T00:02:54;71.77;;;24.70;;
3643;SDS011;1838;50.742;7.158;2024-01-11T00:05:19;57.93;;;22.50;;
3643;SDS011;1838;50.742;7.158;2024-01-11T00:07:46;64.10;;;21.60;;
3643;SDS011;1838;50.742;7.158;2024-01-11T00:10:11;59.63;;;23.73;;
3643;SDS011;1838;50.742;7.158;2024-01-11T00:12:37;64.23;;;21.43;;
3643;SDS011;1838;50.742;7.158;2024-01-11T00:15:03;67.77;;;23.53;;
3643;SDS011;1838;50.742;7.158;2024-01-11T00:17:28;61.03;;;23.10;;
3643;SDS011;1838;50.742;7.158;2024-01-11T00:19:54;62.07;;;23.07;;
3643;SDS011;1838;50.742;7.158;2024-01-11T00:22:19;56.10;;;22.17;;
3643;SDS011;1838;50.742;7.158;2024-01-11T00:24:45;51.80;;;20.57;;
3643;SDS011;1838;50.742;7.158;2024-01-11T00:27:10;57.80;;;22.00;;
3643;SDS011;1838;50.742;7.158;2024-01-11T00:29:36;55.93;;;23.40;;
3643;SDS011;1838;50.742;7.158;2024-01-11T00:32:01;62.73;;;21.70;;
3643;SDS011;1838;50.742;7.158;2024-01-11T00:34:27;60.47;;;24.07;;
3643;SDS011;1838;50.742;7.158;2024-01-11T00:36:53;62.60;;;23.60;;
3643;SDS011;1838;50.742;7.158;2024-01-11T00:39:18;55.93;;;23.27;;
3643;SDS011;1838;50.742;7.158;2024-01-11T00:41:44;58.77;;;23.00;;
3643;SDS011;1838;50.742;7.158;2024-01-11T00:44:09;56.07;;;22.00;;
3643;SDS011;1838;50.742;7.158;2024-01-11T00:46:35;61.63;;;25.03;;
3643;SDS011;1838;50.742;7.158;2024-01-11T00:49:00;51.00;;;22.53;;
3643;SDS011;1838;50.742;7.158;2024-01-11T00:51:26;70.23;;;23.30;;
3643;SDS011;1838;50.742;7.158;2024-01-11T00:53:51;68.17;;;25.87;;
3643;SDS011;1838;50.742;7.158;2024-01-11T00:56:17;66.90;;;23.80;;
3643;SDS011;1838;50.742;7.158;2024-01-11T00:58:43;63.10;;;23.95;;
3643;SDS011;1838;50.742;7.158;2024-01-11T01:01:09;59.47;;;21.90;;
3643;SDS011;1838;50.742;7.158;2024-01-11T01:03:35;64.80;;;24.63;;
3643;SDS011;1838;50.742;7.158;2024-01-11T01:06:01;62.73;;;22.33;;
3643;SDS011;1838;50.742;7.158;2024-01-11T01:08:27;57.53;;;23.00;;
3643;SDS011;1838;50.742;7.158;2024-01-11T01:10:53;54.97;;;21.60;;
3643;SDS011;1838;50.742;7.158;2024-01-11T01:13:18;52.07;;;20.13;;
3643;SDS011;1838;50.742;7.158;2024-01-11T01:15:44;58.27;;;22.43;;
3643;SDS011;1838;50.742;7.158;2024-01-11T01:18:09;62.23;;;21.77;;
3643;SDS011;1838;50.742;7.158;2024-01-11T01:20:35;60.10;;;22.57;;
3643;SDS011;1838;50.742;7.158;2024-01-11T01:23:01;59.50;;;24.00;;
3643;SDS011;1838;50.742;7.158;2024-01-11T01:25:26;65.72;;;22.90;;
3643;SDS011;1838;50.742;7.158;2024-01-11T01:27:52;69.87;;;23.63;;
3643;SDS011;1838;50.742;7.158;2024-01-11T01:30:18;58.83;;;22.53;;
3643;SDS011;1838;50.742;7.158;2024-01-11T01:32:43;55.23;;;21.63;;
3643;SDS011;1838;50.742;7.158;2024-01-11T01:35:09;59.07;;;23.33;;
3643;SDS011;1838;50.742;7.158;2024-01-11T01:37:34;64.53;;;23.47;;
3643;SDS011;1838;50.742;7.158;2024-01-11T01:40:00;62.83;;;24.97;;
3643;SDS011;1838;50.742;7.158;2024-01-11T01:42:25;68.33;;;24.13;;
3643;SDS011;1838;50.742;7.158;2024-01-11T01:44:51;62.43;;;23.17;;
3643;SDS011;1838;50.742;7.158;2024-01-11T01:47:16;65.73;;;23.03;;
3643;SDS011;1838;50.742;7.158;2024-01-11T01:49:43;63.63;;;22.80;;
3643;SDS011;1838;50.742;7.158;2024-01-11T01:52:10;58.33;;;23.42;;
3643;SDS011;1838;50.742;7.158;2024-01-11T01:54:39;60.38;;;24.20;;
3643;SDS011;1838;50.742;7.158;2024-01-11T01:57:04;62.40;;;24.00;;
3643;SDS011;1838;50.742;7.158;2024-01-11T01:59:32;53.22;;;21.38;;
3643;SDS011;1838;50.742;7.158;2024-01-11T02:01:58;53.23;;;21.70;;
3643;SDS011;1838;50.742;7.158;2024-01-11T02:04:25;59.08;;;22.52;;
3643;SDS011;1838;50.742;7.158;2024-01-11T02:06:50;61.67;;;23.60;;
3643;SDS011;1838;50.742;7.158;2024-01-11T02:09:18;66.30;;;24.15;;
3643;SDS011;1838;50.742;7.158;2024-01-11T02:11:43;63.30;;;24.30;;
3643;SDS011;1838;50.742;7.158;2024-01-11T02:14:10;52.83;;;21.83;;
3643;SDS011;1838;50.742;7.158;2024-01-11T02:16:36;60.10;;;23.60;;
3643;SDS011;1838;50.742;7.158;2024-01-11T02:19:02;91.65;;;29.77;;
3643;SDS011;1838;50.742;7.158;2024-01-11T02:21:30;76.32;;;28.05;;
3643;SDS011;1838;50.742;7.158;2024-01-11T02:24:02;64.07;;;27.40;;
3643;SDS011;1838;50.742;7.158;2024-01-11T02:26:29;72.03;;;26.13;;
3643;SDS011;1838;50.742;7.158;2024-01-11T02:28:54;82.00;;;25.50;;
3643;SDS011;1838;50.742;7.158;2024-01-11T02:31:20;65.60;;;24.43;;
3643;SDS011;1838;50.742;7.158;2024-01-11T02:33:45;60.00;;;24.87;;
3643;SDS011;1838;50.742;7.158;2024-01-11T02:36:12;65.43;;;27.25;;
3643;SDS011;1838;50.742;7.158;2024-01-11T02:38:38;63.80;;;24.50;;
3643;SDS011;1838;50.742;7.158;2024-01-11T02:41:07;66.00;;;23.85;;
3643;SDS011;1838;50.742;7.158;2024-01-11T02:43:33;64.67;;;24.87;;
3643;SDS011;1838;50.742;7.158;2024-01-11T02:46:00;64.72;;;25.80;;
3643;SDS011;1838;50.742;7.158;2024-01-11T02:48:27;63.92;;;24.77;;
3643;SDS011;1838;50.742;7.158;2024-01-11T02:50:56;58.53;;;23.48;;
3643;SDS011;1838;50.742;7.158;2024-01-11T02:53:22;63.42;;;23.60;;
3643;SDS011;1838;50.742;7.158;2024-01-11T02:55:48;66.25;;;24.92;;
3643;SDS011;1838;50.742;7.158;2024-01-11T02:58:17;63.05;;;28.15;;
3643;SDS011;1838;50.742;7.158;2024-01-11T03:00:42;68.10;;;25.33;;
3643;SDS011;1838;50.742;7.158;2024-01-11T03:03:08;57.53;;;23.30;;
3643;SDS011;1838;50.742;7.158;2024-01-11T03:05:33;58.10;;;23.67;;
3643;SDS011;1838;50.742;7.158;2024-01-11T03:07:59;67.67;;;25.77;;
3643;SDS011;1838;50.742;7.158;2024-01-11T03:10:24;71.00;;;24.90;;
3643;SDS011;1838;50.742;7.158;2024-01-11T03:12:50;70.60;;;27.53;;
3643;SDS011;1838;50.742;7.158;2024-01-11T03:15:15;65.90;;;25.90;;
3643;SDS011;1838;50.742;7.158;2024-01-11T03:17:41;62.40;;;25.17;;
3643;SDS011;1838;50.742;7.158;2024-01-11T03:20:07;57.47;;;23.87;;
3643;SDS011;1838;50.742;7.158;2024-01-11T03:22:33;77.30;;;27.27;;
3643;SDS011;1838;50.742;7.158;2024-01-11T03:24:58;74.53;;;27.60;;
3643;SDS011;1838;50.742;7.158;2024-01-11T03:27:24;72.70;;;26.33;;
3643;SDS011;1838;50.742;7.158;2024-01-11T03:29:50;62.83;;;24.40;;
3643;SDS011;1838;50.742;7.158;2024-01-11T03:32:15;72.87;;;24.77;;
3643;SDS011;1838;50.742;7.158;2024-01-11T03:34:41;68.20;;;26.70;;
3643;SDS011;1838;50.742;7.158;2024-01-11T03:37:07;65.50;;;24.73;;
3643;SDS011;1838;50.742;7.158;2024-01-11T03:39:33;59.47;;;23.17;;
3643;SDS011;1838;50.742;7.158;2024-01-11T03:41:59;71.43;;;25.75;;
3643;SDS011;1838;50.742;7.158;2024-01-11T03:44:24;76.23;;;28.50;;
3643;SDS011;1838;50.742;7.158;2024-01-11T03:46:50;74.23;;;24.97;;
3643;SDS011;1838;50.742;7.158;2024-01-11T03:49:16;59.08;;;24.50;;
3643;SDS011;1838;50.742;7.158;2024-01-11T03:51:42;55.57;;;24.90;;
3643;SDS011;1838;50.742;7.158;2024-01-11T03:54:08;62.80;;;24.83;;
3643;SDS011;1838;50.742;7.158;2024-01-11T03:56:33;62.93;;;24.17;;
3643;SDS011;1838;50.742;7.158;2024-01-11T03:59:02;63.30;;;25.40;;
3643;SDS011;1838;50.742;7.158;2024-01-11T04:01:27;59.57;;;24.63;;
3643;SDS011;1838;50.742;7.158;2024-01-11T04:03:53;70.15;;;24.88;;
3643;SDS011;1838;50.742;7.158;2024-01-11T04:06:21;56.30;;;23.60;;
3643;SDS011;1838;50.742;7.158;2024-01-11T04:08:48;62.40;;;23.25;;
3643;SDS011;1838;50.742;7.158;2024-01-11T04:11:15;61.15;;;24.42;;
3643;SDS011;1838;50.742;7.158;2024-01-11T04:13:40;62.47;;;25.27;;
3643;SDS011;1838;50.742;7.158;2024-01-11T04:16:06;62.80;;;22.37;;
3643;SDS011;1838;50.742;7.158;2024-01-11T04:18:32;56.43;;;21.80;;
3643;SDS011;1838;50.742;7.158;2024-01-11T04:20:58;64.67;;;22.70;;
3643;SDS011;1838;50.742;7.158;2024-01-11T04:23:23;57.27;;;24.87;;
3643;SDS011;1838;50.742;7.158;2024-01-11T04:25:49;60.53;;;23.60;;
3643;SDS011;1838;50.742;7.158;2024-01-11T04:28:16;74.00;;;28.90;;
3643;SDS011;1838;50.742;7.158;2024-01-11T04:30:42;67.65;;;26.05;;
3643;SDS011;1838;50.742;7.158;2024-01-11T04:33:09;63.43;;;24.33;;
3643;SDS011;1838;50.742;7.158;2024-01-11T04:35:35;72.00;;;24.42;;
3643;SDS011;1838;50.742;7.158;2024-01-11T04:38:01;60.07;;;22.67;;
3643;SDS011;1838;50.742;7.158;2024-01-11T04:40:26;58.80;;;23.87;;
3643;SDS011;1838;50.742;7.158;2024-01-11T04:42:52;69.20;;;23.67;;
3643;SDS011;1838;50.742;7.158;2024-01-11T04:45:17;60.63;;;24.07;;
3643;SDS011;1838;50.742;7.158;2024-01-11T04:47:43;70.10;;;24.87;;
3643;SDS011;1838;50.742;7.158;2024-01-11T04:50:08;63.50;;;24.37;;
3643;SDS011;1838;50.742;7.158;2024-01-11T04:52:34;62.70;;;23.60;;
3643;SDS011;1838;50.742;7.158;2024-01-11T04:54:59;55.93;;;21.20;;
3643;SDS011;1838;50.742;7.158;2024-01-11T04:57:25;74.57;;;25.30;;
3643;SDS011;1838;50.742;7.158;2024-01-11T04:59:51;65.70;;;24.80;;
3643;SDS011;1838;50.742;7.158;2024-01-11T05:02:18;71.10;;;24.70;;
3643;SDS011;1838;50.742;7.158;2024-01-11T05:04:45;64.28;;;24.33;;
3643;SDS011;1838;50.742;7.158;2024-01-11T05:07:11;66.77;;;24.40;;
3643;SDS011;1838;50.742;7.158;2024-01-11T05:09:36;64.20;;;25.47;;
3643;SDS011;1838;50.742;7.158;2024-01-11T05:12:02;59.03;;;22.53;;
3643;SDS011;1838;50.742;7.158;2024-01-11T05:14:27;61.90;;;24.83;;
3643;SDS011;1838;50.742;7.158;2024-01-11T05:16:53;68.07;;;24.13;;
3643;SDS011;1838;50.742;7.158;2024-01-11T05:19:18;63.00;;;25.60;;
3643;SDS011;1838;50.742;7.158;2024-01-11T05:21:44;72.23;;;26.10;;
3643;SDS011;1838;50.742;7.158;2024-01-11T05:24:10;74.67;;;26.77;;
3643;SDS011;1838;50.742;7.158;2024-01-11T05:26:35;71.47;;;26.73;;
3643;SDS011;1838;50.742;7.158;2024-01-11T05:29:01;65.90;;;23.90;;
3643;SDS011;1838;50.742;7.158;2024-01-11T05:31:29;64.53;;;24.23;;
3643;SDS011;1838;50.742;7.158;2024-01-11T05:33:54;68.80;;;25.47;;
3643;SDS011;1838;50.742;7.158;2024-01-11T05:36:20;76.47;;;26.20;;
3643;SDS011;1838;50.742;7.158;2024-01-11T05:38:46;72.20;;;24.85;;
3643;SDS011;1838;50.742;7.158;2024-01-11T05:41:12;62.07;;;24.50;;
3643;SDS011;1838;50.742;7.158;2024-01-11T05:43:37;69.67;;;25.73;;
3643;SDS011;1838;50.742;7.158;2024-01-11T05:46:04;73.68;;;25.45;;
3643;SDS011;1838;50.742;7.158;2024-01-11T05:48:29;80.13;;;27.03;;
3643;SDS011;1838;50.742;7.158;2024-01-11T05:50:55;73.13;;;28.90;;
3643;SDS011;1838;50.742;7.158;2024-01-11T05:53:20;70.00;;;27.40;;
3643;SDS011;1838;50.742;7.158;2024-01-11T05:55:46;66.63;;;25.53;;
3643;SDS011;1838;50.742;7.158;2024-01-11T05:58:12;85.95;;;30.45;;
3643;SDS011;1838;50.742;7.158;2024-01-11T06:00:38;74.43;;;27.10;;
3643;SDS011;1838;50.742;7.158;2024-01-11T06:03:03;64.27;;;27.43;;
3643;SDS011;1838;50.742;7.158;2024-01-11T06:05:29;63.95;;;24.30;;
3643;SDS011;1838;50.742;7.158;2024-01-11T06:07:55;74.30;;;25.67;;
3643;SDS011;1838;50.742;7.158;2024-01-11T06:10:20;69.50;;;25.67;;
3643;SDS011;1838;50.742;7.158;2024-01-11T06:12:46;81.50;;;28.37;;
3643;SDS011;1838;50.742;7.158;2024-01-11T06:15:11;70.07;;;27.50;;
3643;SDS011;1838;50.742;7.158;2024-01-11T06:17:37;78.30;;;26.93;;
3643;SDS011;1838;50.742;7.158;2024-01-11T06:20:03;73.47;;;25.97;;
3643;SDS011;1838;50.742;7.158;2024-01-11T06:22:28;65.37;;;24.87;;
3643;SDS011;1838;50.742;7.158;2024-01-11T06:24:54;88.67;;;26.77;;
3643;SDS011;1838;50.742;7.158;2024-01-11T06:27:19;59.57;;;23.50;;
3643;SDS011;1838;50.742;7.158;2024-01-11T06:29:45;56.33;;;23.10;;
3643;SDS011;1838;50.742;7.158;2024-01-11T06:32:11;75.10;;;25.23;;
3643;SDS011;1838;50.742;7.158;2024-01-11T06:34:36;72.00;;;26.50;;
3643;SDS011;1838;50.742;7.158;2024-01-11T06:37:02;76.63;;;25.57;;
3643;SDS011;1838;50.742;7.158;2024-01-11T06:39:28;65.73;;;25.33;;
3643;SDS011;1838;50.742;7.158;2024-01-11T06:41:54;66.60;;;24.80;;
3643;SDS011;1838;50.742;7.158;2024-01-11T06:44:20;66.90;;;24.50;;
3643;SDS011;1838;50.742;7.158;2024-01-11T06:46:46;62.80;;;24.83;;
3643;SDS011;1838;50.742;7.158;2024-01-11T06:49:11;65.80;;;26.23;;
3643;SDS011;1838;50.742;7.158;2024-01-11T06:51:37;73.00;;;26.57;;
3643;SDS011;1838;50.742;7.158;2024-01-11T06:54:04;56.38;;;23.83;;
3643;SDS011;1838;50.742;7.158;2024-01-11T06:56:29;63.77;;;25.67;;
3643;SDS011;1838;50.742;7.158;2024-01-11T06:58:55;68.10;;;24.73;;
3643;SDS011;1838;50.742;7.158;2024-01-11T07:01:21;72.13;;;25.08;;
3643;SDS011;1838;50.742;7.158;2024-01-11T07:03:48;60.90;;;25.77;;
3643;SDS011;1838;50.742;7.158;2024-01-11T07:06:14;65.07;;;24.20;;
3643;SDS011;1838;50.742;7.158;2024-01-11T07:08:40;58.50;;;23.77;;
3643;SDS011;1838;50.742;7.158;2024-01-11T07:11:05;57.05;;;24.70;;
3643;SDS011;1838;50.742;7.158;2024-01-11T07:13:32;58.45;;;25.25;;
3643;SDS011;1838;50.742;7.158;2024-01-11T07:15:58;64.53;;;25.03;;
3643;SDS011;1838;50.742;7.158;2024-01-11T07:18:24;73.17;;;23.33;;
3643;SDS011;1838;50.742;7.158;2024-01-11T07:20:53;69.00;;;24.70;;
3643;SDS011;1838;50.742;7.158;2024-01-11T07:23:21;69.22;;;25.08;;
3643;SDS011;1838;50.742;7.158;2024-01-11T07:25:47;64.67;;;25.27;;
3643;SDS011;1838;50.742;7.158;2024-01-11T07:28:12;60.93;;;22.17;;
3643;SDS011;1838;50.742;7.158;2024-01-11T07:30:38;65.80;;;24.13;;
3643;SDS011;1838;50.742;7.158;2024-01-11T07:33:04;62.80;;;24.15;;
3643;SDS011;1838;50.742;7.158;2024-01-11T07:35:30;51.10;;;22.07;;
3643;SDS011;1838;50.742;7.158;2024-01-11T07:37:56;63.77;;;24.60;;
3643;SDS011;1838;50.742;7.158;2024-01-11T07:40:22;78.63;;;26.40;;
3643;SDS011;1838;50.742;7.158;2024-01-11T07:42:47;71.93;;;27.70;;
3643;SDS011;1838;50.742;7.158;2024-01-11T07:45:13;56.73;;;24.80;;
3643;SDS011;1838;50.742;7.158;2024-01-11T07:47:39;68.00;;;26.10;;
3643;SDS011;1838;50.742;7.158;2024-01-11T07:50:08;67.40;;;27.10;;
3643;SDS011;1838;50.742;7.158;2024-01-11T07:52:37;55.45;;;25.65;;
3643;SDS011;1838;50.742;7.158;2024-01-11T07:55:04;71.00;;;24.65;;
3643;SDS011;1838;50.742;7.158;2024-01-11T07:57:35;59.10;;;24.35;;
3643;SDS011;1838;50.742;7.158;2024-01-11T08:00:02;81.32;;;30.42;;
3643;SDS011;1838;50.742;7.158;2024-01-11T08:02:29;74.72;;;26.23;;
3643;SDS011;1838;50.742;7.158;2024-01-11T08:04:55;66.87;;;25.07;;
3643;SDS011;1838;50.742;7.158;2024-01-11T08:07:20;69.97;;;24.63;;
3643;SDS011;1838;50.742;7.158;2024-01-11T08:09:47;75.30;;;26.55;;
3643;SDS011;1838;50.742;7.158;2024-01-11T08:12:12;74.53;;;28.13;;
3643;SDS011;1838;50.742;7.158;2024-01-11T08:14:41;73.25;;;29.17;;
3643;SDS011;1838;50.742;7.158;2024-01-11T08:17:07;78.57;;;27.33;;
3643;SDS011;1838;50.742;7.158;2024-01-11T08:19:33;68.80;;;25.15;;
3643;SDS011;1838;50.742;7.158;2024-01-11T08:21:59;59.80;;;25.83;;
3643;SDS011;1838;50.742;7.158;2024-01-11T08:24:24;77.03;;;25.50;;
3643;SDS011;1838;50.742;7.158;2024-01-11T08:26:50;81.70;;;26.43;;
3643;SDS011;1838;50.742;7.158;2024-01-11T08:29:16;71.57;;;26.37;;
3643;SDS011;1838;50.742;7.158;2024-01-11T08:31:43;67.32;;;26.55;;
3643;SDS011;1838;50.742;7.158;2024-01-11T08:34:09;68.87;;;24.33;;
3643;SDS011;1838;50.742;7.158;2024-01-11T08:36:35;63.30;;;26.30;;
3643;SDS011;1838;50.742;7.158;2024-01-11T08:39:03;79.70;;;25.73;;
3643;SDS011;1838;50.742;7.158;2024-01-11T08:41:32;77.53;;;26.10;;
3643;SDS011;1838;50.742;7.158;2024-01-11T08:43:58;71.60;;;26.23;;
3643;SDS011;1838;50.742;7.158;2024-01-11T08:46:24;74.82;;;27.67;;
3643;SDS011;1838;50.742;7.158;2024-01-11T08:48:55;82.40;;;28.15;;
3643;SDS011;1838;50.742;7.158;2024-01-11T08:51:21;64.72;;;25.02;;
3643;SDS011;1838;50.742;7.158;2024-01-11T08:53:47;81.17;;;29.03;;
3643;SDS011;1838;50.742;7.158;2024-01-11T08:56:13;69.10;;;24.87;;
3643;SDS011;1838;50.742;7.158;2024-01-11T08:58:41;72.23;;;28.47;;
3643;SDS011;1838;50.742;7.158;2024-01-11T09:01:07;104.10;;;31.27;;
3643;SDS011;1838;50.742;7.158;2024-01-11T09:03:35;76.07;;;30.42;;
3643;SDS011;1838;50.742;7.158;2024-01-11T09:06:02;75.43;;;29.43;;
3643;SDS011;1838;50.742;7.158;2024-01-11T09:08:28;86.90;;;29.90;;
3643;SDS011;1838;50.742;7.158;2024-01-11T09:10:54;93.25;;;32.55;;
3643;SDS011;1838;50.742;7.158;2024-01-11T09:13:20;76.83;;;29.17;;
3643;SDS011;1838;50.742;7.158;2024-01-11T09:15:46;82.00;;;32.60;;
3643;SDS011;1838;50.742;7.158;2024-01-11T09:18:11;93.77;;;31.87;;
3643;SDS011;1838;50.742;7.158;2024-01-11T09:20:37;82.90;;;32.60;;
3643;SDS011;1838;50.742;7.158;2024-01-11T09:23:03;79.60;;;32.93;;
3643;SDS011;1838;50.742;7.158;2024-01-11T09:25:31;80.40;;;31.07;;
3643;SDS011;1838;50.742;7.158;2024-01-11T09:27:57;85.90;;;31.60;;
3643;SDS011;1838;50.742;7.158;2024-01-11T09:30:23;76.83;;;32.00;;
3643;SDS011;1838;50.742;7.158;2024-01-11T09:32:48;82.60;;;30.60;;
3643;SDS011;1838;50.742;7.158;2024-01-11T09:35:14;83.13;;;31.80;;
3643;SDS011;1838;50.742;7.158;2024-01-11T09:37:40;82.03;;;30.70;;
3643;SDS011;1838;50.742;7.158;2024-01-11T09:40:06;77.23;;;29.80;;
3643;SDS011;1838;50.742;7.158;2024-01-11T09:42:39;79.53;;;30.38;;
3643;SDS011;1838;50.742;7.158;2024-01-11T09:45:09;84.90;;;31.70;;
3643;SDS011;1838;50.742;7.158;2024-01-11T09:47:38;72.97;;;29.13;;
3643;SDS011;1838;50.742;7.158;2024-01-11T09:50:05;80.00;;;31.17;;
3643;SDS011;1838;50.742;7.158;2024-01-11T09:52:32;85.10;;;30.52;;
3643;SDS011;1838;50.742;7.158;2024-01-11T09:54:58;81.93;;;31.42;;
3643;SDS011;1838;50.742;7.158;2024-01-11T09:57:24;90.82;;;31.15;;
3643;SDS011;1838;50.742;7.158;2024-01-11T09:59:56;76.75;;;31.27;;
3643;SDS011;1838;50.742;7.158;2024-01-11T10:02:25;84.75;;;32.60;;
3643;SDS011;1838;50.742;7.158;2024-01-11T10:04:54;87.00;;;32.00;;
3643;SDS011;1838;50.742;7.158;2024-01-11T10:07:21;83.23;;;29.97;;
3643;SDS011;1838;50.742;7.158;2024-01-11T10:09:48;89.75;;;32.05;;
3643;SDS011;1838;50.742;7.158;2024-01-11T10:12:14;73.38;;;30.52;;
3643;SDS011;1838;50.742;7.158;2024-01-11T10:14:40;89.47;;;33.28;;
3643;SDS011;1838;50.742;7.158;2024-01-11T10:17:06;85.47;;;32.83;;
3643;SDS011;1838;50.742;7.158;2024-01-11T10:19:32;85.17;;;32.17;;
3643;SDS011;1838;50.742;7.158;2024-01-11T10:21:57;71.63;;;29.10;;
3643;SDS011;1838;50.742;7.158;2024-01-11T10:24:26;96.28;;;31.70;;
3643;SDS011;1838;50.742;7.158;2024-01-11T10:26:56;84.78;;;33.75;;
3643;SDS011;1838;50.742;7.158;2024-01-11T10:29:27;76.28;;;33.05;;
3643;SDS011;1838;50.742;7.158;2024-01-11T10:31:55;78.00;;;32.65;;
3643;SDS011;1838;50.742;7.158;2024-01-11T10:34:22;70.23;;;31.10;;
3643;SDS011;1838;50.742;7.158;2024-01-11T10:36:48;89.40;;;36.17;;
3643;SDS011;1838;50.742;7.158;2024-01-11T10:39:15;84.85;;;33.45;;
3643;SDS011;1838;50.742;7.158;2024-01-11T10:41:44;87.80;;;33.50;;
3643;SDS011;1838;50.742;7.158;2024-01-11T10:44:18;88.72;;;32.97;;
3643;SDS011;1838;50.742;7.158;2024-01-11T10:46:47;92.38;;;34.00;;
3643;SDS011;1838;50.742;7.158;2024-01-11T10:49:17;91.82;;;34.38;;
3643;SDS011;1838;50.742;7.158;2024-01-11T10:51:45;82.47;;;32.95;;
3643;SDS011;1838;50.742;7.158;2024-01-11T10:54:18;95.80;;;33.63;;
3643;SDS011;1838;50.742;7.158;2024-01-11T10:56:45;80.97;;;32.67;;
3643;SDS011;1838;50.742;7.158;2024-01-11T10:59:12;84.65;;;35.70;;
3643;SDS011;1838;50.742;7.158;2024-01-11T11:01:38;80.25;;;33.35;;
3643;SDS011;1838;50.742;7.158;2024-01-11T11:04:04;79.80;;;32.05;;
3643;SDS011;1838;50.742;7.158;2024-01-11T11:06:34;91.38;;;36.25;;
3643;SDS011;1838;50.742;7.158;2024-01-11T11:09:00;95.32;;;36.38;;
3643;SDS011;1838;50.742;7.158;2024-01-11T11:11:28;79.53;;;32.97;;
3643;SDS011;1838;50.742;7.158;2024-01-11T11:13:56;77.57;;;34.95;;
3643;SDS011;1838;50.742;7.158;2024-01-11T11:16:25;78.88;;;32.92;;
3643;SDS011;1838;50.742;7.158;2024-01-11T11:18:52;91.00;;;33.23;;
3643;SDS011;1838;50.742;7.158;2024-01-11T11:21:19;85.85;;;31.45;;
3643;SDS011;1838;50.742;7.158;2024-01-11T11:23:46;76.95;;;33.75;;
3643;SDS011;1838;50.742;7.158;2024-01-11T11:26:15;92.63;;;35.33;;
3643;SDS011;1838;50.742;7.158;2024-01-11T11:28:42;84.10;;;32.55;;
3643;SDS011;1838;50.742;7.158;2024-01-11T11:31:08;81.95;;;31.73;;
3643;SDS011;1838;50.742;7.158;2024-01-11T11:33:37;85.25;;;34.10;;
3643;SDS011;1838;50.742;7.158;2024-01-11T11:36:03;81.90;;;31.90;;
3643;SDS011;1838;50.742;7.158;2024-01-11T11:38:29;86.83;;;34.20;;
3643;SDS011;1838;50.742;7.158;2024-01-11T11:40:56;87.45;;;34.20;;
3643;SDS011;1838;50.742;7.158;2024-01-11T11:43:24;80.38;;;31.60;;
3643;SDS011;1838;50.742;7.158;2024-01-11T11:45:51;83.30;;;34.05;;
3643;SDS011;1838;50.742;7.158;2024-01-11T11:51:06;75.85;;;33.10;;
3643;SDS011;1838;50.742;7.158;2024-01-11T11:53:36;74.43;;;32.83;;
3643;SDS011;1838;50.742;7.158;2024-01-11T11:56:03;73.75;;;31.80;;
3643;SDS011;1838;50.742;7.158;2024-01-11T11:58:29;92.43;;;32.90;;
3643;SDS011;1838;50.742;7.158;2024-01-11T12:00:56;79.25;;;33.15;;
3643;SDS011;1838;50.742;7.158;2024-01-11T12:03:33;76.93;;;33.57;;
3643;SDS011;1838;50.742;7.158;2024-01-11T12:06:04;77.13;;;33.10;;
3643;SDS011;1838;50.742;7.158;2024-01-11T12:08:30;86.37;;;32.47;;
3643;SDS011;1838;50.742;7.158;2024-01-11T12:10:56;83.00;;;33.80;;
3643;SDS011;1838;50.742;7.158;2024-01-11T12:13:22;80.93;;;33.90;;
3643;SDS011;1838;50.742;7.158;2024-01-11T12:15:49;81.17;;;32.60;;
3643;SDS011;1838;50.742;7.158;2024-01-11T12:18:14;86.87;;;31.60;;
3643;SDS011;1838;50.742;7.158;2024-01-11T12:20:40;78.27;;;31.00;;
3643;SDS011;1838;50.742;7.158;2024-01-11T12:23:06;88.60;;;34.83;;
3643;SDS011;1838;50.742;7.158;2024-01-11T12:25:31;79.80;;;32.87;;
3643;SDS011;1838;50.742;7.158;2024-01-11T12:27:57;86.80;;;33.37;;
3643;SDS011;1838;50.742;7.158;2024-01-11T12:30:26;73.90;;;32.83;;
3643;SDS011;1838;50.742;7.158;2024-01-11T12:32:52;84.73;;;33.93;;
3643;SDS011;1838;50.742;7.158;2024-01-11T12:35:18;78.70;;;33.90;;
3643;SDS011;1838;50.742;7.158;2024-01-11T12:37:53;75.17;;;34.23;;
3643;SDS011;1838;50.742;7.158;2024-01-11T12:40:20;76.93;;;33.77;;
3643;SDS011;1838;50.742;7.158;2024-01-11T12:42:45;83.67;;;36.83;;
3643;SDS011;1838;50.742;7.158;2024-01-11T12:45:11;90.83;;;37.30;;
3643;SDS011;1838;50.742;7.158;2024-01-11T12:47:37;108.23;;;40.73;;
3643;SDS011;1838;50.742;7.158;2024-01-11T12:50:03;86.27;;;37.90;;
3643;SDS011;1838;50.742;7.158;2024-01-11T12:52:29;95.50;;;39.83;;
3643;SDS011;1838;50.742;7.158;2024-01-11T12:54:55;94.37;;;40.30;;
3643;SDS011;1838;50.742;7.158;2024-01-11T12:57:21;90.17;;;39.67;;
3643;SDS011;1838;50.742;7.158;2024-01-11T12:59:47;85.23;;;39.50;;
3643;SDS011;1838;50.742;7.158;2024-01-11T13:02:14;97.27;;;42.23;;
3643;SDS011;1838;50.742;7.158;2024-01-11T13:04:42;91.30;;;41.30;;
3643;SDS011;1838;50.742;7.158;2024-01-11T13:07:10;114.47;;;42.57;;
3643;SDS011;1838;50.742;7.158;2024-01-11T13:09:37;89.03;;;40.33;;
3643;SDS011;1838;50.742;7.158;2024-01-11T13:12:03;105.20;;;47.43;;
3643;SDS011;1838;50.742;7.158;2024-01-11T13:14:28;104.93;;;42.17;;
3643;SDS011;1838;50.742;7.158;2024-01-11T13:16:54;107.03;;;45.87;;
3643;SDS011;1838;50.742;7.158;2024-01-11T13:19:19;100.72;;;44.25;;
3643;SDS011;1838;50.742;7.158;2024-01-11T13:21:45;111.00;;;44.00;;
3643;SDS011;1838;50.742;7.158;2024-01-11T13:24:10;105.97;;;43.77;;
3643;SDS011;1838;50.742;7.158;2024-01-11T13:26:38;125.87;;;44.30;;
3643;SDS011;1838;50.742;7.158;2024-01-11T13:29:04;99.37;;;43.27;;
3643;SDS011;1838;50.742;7.158;2024-01-11T13:31:30;114.57;;;47.77;;
3643;SDS011;1838;50.742;7.158;2024-01-11T13:33:56;103.50;;;45.87;;
3643;SDS011;1838;50.742;7.158;2024-01-11T13:36:22;98.20;;;43.37;;
3643;SDS011;1838;50.742;7.158;2024-01-11T13:38:48;103.47;;;44.80;;
3643;SDS011;1838;50.742;7.158;2024-01-11T13:41:15;93.50;;;42.28;;
3643;SDS011;1838;50.742;7.158;2024-01-11T13:43:42;116.27;;;44.17;;
3643;SDS011;1838;50.742;7.158;2024-01-11T13:46:08;89.43;;;39.40;;
3643;SDS011;1838;50.742;7.158;2024-01-11T13:48:34;99.50;;;41.80;;
3643;SDS011;1838;50.742;7.158;2024-01-11T13:50:59;102.90;;;42.30;;
3643;SDS011;1838;50.742;7.158;2024-01-11T13:53:25;88.10;;;39.07;;
3643;SDS011;1838;50.742;7.158;2024-01-11T13:55:51;98.43;;;38.57;;
3643;SDS011;1838;50.742;7.158;2024-01-11T13:58:17;94.53;;;41.03;;
3643;SDS011;1838;50.742;7.158;2024-01-11T14:00:43;82.87;;;39.27;;
3643;SDS011;1838;50.742;7.158;2024-01-11T14:03:09;101.00;;;40.17;;
3643;SDS011;1838;50.742;7.158;2024-01-11T14:05:35;81.90;;;37.70;;
3643;SDS011;1838;50.742;7.158;2024-01-11T14:08:01;92.20;;;36.67;;
3643;SDS011;1838;50.742;7.158;2024-01-11T14:10:30;96.60;;;40.30;;
3643;SDS011;1838;50.742;7.158;2024-01-11T14:12:56;89.63;;;37.10;;
3643;SDS011;1838;50.742;7.158;2024-01-11T14:15:21;90.33;;;42.77;;
3643;SDS011;1838;50.742;7.158;2024-01-11T14:17:47;95.70;;;37.37;;
3643;SDS011;1838;50.742;7.158;2024-01-11T14:20:13;86.70;;;38.67;;
3643;SDS011;1838;50.742;7.158;2024-01-11T14:22:40;86.57;;;38.23;;
3643;SDS011;1838;50.742;7.158;2024-01-11T14:25:06;86.23;;;37.30;;
3643;SDS011;1838;50.742;7.158;2024-01-11T14:27:34;79.40;;;39.53;;
3643;SDS011;1838;50.742;7.158;2024-01-11T14:29:59;87.93;;;40.07;;
3643;SDS011;1838;50.742;7.158;2024-01-11T14:32:24;93.03;;;39.80;;
3643;SDS011;1838;50.742;7.158;2024-01-11T14:34:52;89.53;;;36.50;;
3643;SDS011;1838;50.742;7.158;2024-01-11T14:37:17;92.73;;;37.27;;
3643;SDS011;1838;50.742;7.158;2024-01-11T14:39:43;87.40;;;38.67;;
3643;SDS011;1838;50.742;7.158;2024-01-11T14:42:09;87.20;;;36.60;;
3643;SDS011;1838;50.742;7.158;2024-01-11T14:44:37;97.30;;;39.10;;